Terminal Aerodrome Forecast
Issued by NWS

Home | Current Version | Previous Version | Text Only | Print | Product List | Glossary On
Versions: 1 2 3 4 5 6 7 8 9 10 11 12 13
000
FTUS43 KLSX 221240 AAA
TAFCPS
TAF AMD
KCPS 221240Z 2213/2312 VRB04KT 6SM BR SKC
     FM221400 16006KT P6SM FEW040 SCT250
     FM230000 VRB03KT P6SM SKC=

USA.gov is the U.S. government's official web portal to all federal, state and local government web resources and services.